Bookmark and Share
Track history (hours):
 

Osg Courageous

More information available from US FCC via Universal Licensing System and Coast Guard Vessel Documentation Center.

Last reported at 2014-Apr-19 23:33 UTC. Time now 2014-Apr-24 06:23 UTC.
Position N 27°47' W 082°31'.

Length 187 m; draft 11 m.

Type: Tanker. MMSI: 367481310.

NotesDate/timePositionNaut miles runAvg speedWind from/ knotsBaromVisibWave heightAir tempDewpointWater temp
2014-Apr-19 23:33N 27°47' W 082°31'9 9.2
2014-Apr-19 22:33N 27°55' W 082°27'0 0.1
2014-Apr-19 21:33N 27°55' W 082°27'0 0.0
2014-Apr-19 20:33N 27°55' W 082°27'0 0.0
2014-Apr-19 19:33N 27°55' W 082°27'0 0.0
2014-Apr-19 18:33N 27°55' W 082°27'0 0.0
2014-Apr-19 17:33N 27°55' W 082°27'0 0.0
2014-Apr-19 16:33N 27°55' W 082°27'0 0.0
2014-Apr-19 15:33N 27°55' W 082°27'0 0.0
2014-Apr-19 14:30N 27°55' W 082°27'0 0.2
2014-Apr-19 13:34N 27°55' W 082°27'2 1.6
2014-Apr-19 12:32N 27°57' W 082°27'0 0.0
2014-Apr-19 11:32N 27°57' W 082°27'0 0.0
2014-Apr-19 10:32N 27°57' W 082°27'0 0.0
2014-Apr-19 09:32N 27°57' W 082°27'0 0.0
2014-Apr-19 08:32N 27°57' W 082°27'0 0.0
2014-Apr-19 07:32N 27°57' W 082°27'0 0.0
2014-Apr-19 06:32N 27°57' W 082°27'0 0.0
2014-Apr-19 05:29N 27°57' W 082°27'0 0.0
2014-Apr-19 04:32N 27°57' W 082°27'0 0.0
2014-Apr-19 03:32N 27°57' W 082°27'0 0.0
2014-Apr-19 02:32N 27°57' W 082°27'0 0.0
2014-Apr-19 01:32N 27°57' W 082°27'0 0.0
2014-Apr-19 00:32N 27°57' W 082°27'0 0.0
2014-Apr-18 23:32N 27°57' W 082°27'0 0.0
2014-Apr-18 22:32N 27°57' W 082°27'0 0.0
2014-Apr-18 21:32N 27°57' W 082°27'0 0.0
2014-Apr-18 20:32N 27°57' W 082°27'0 0.0
2014-Apr-18 19:29N 27°57' W 082°27'0 0.0
2014-Apr-18 18:32N 27°57' W 082°27'0 0.5
2014-Apr-18 17:33N 27°56' W 082°27'0 0.0
2014-Apr-18 16:33N 27°56' W 082°27'0 0.0
2014-Apr-18 15:33N 27°56' W 082°27'0 0.0
2014-Apr-18 14:33N 27°56' W 082°27'0 0.0
2014-Apr-18 13:33N 27°56' W 082°27'0 0.0
2014-Apr-18 12:33N 27°56' W 082°27'0 0.0
2014-Apr-18 11:33N 27°56' W 082°27'0 0.0
2014-Apr-18 10:33N 27°56' W 082°27'0 0.0
2014-Apr-18 09:33N 27°56' W 082°27'0 0.0
2014-Apr-18 08:33N 27°56' W 082°27'0 0.0
2014-Apr-18 07:33N 27°56' W 082°27'0 0.0
2014-Apr-18 06:33N 27°56' W 082°27'0 0.0
2014-Apr-18 05:33N 27°56' W 082°27'0 0.0
2014-Apr-18 04:33N 27°56' W 082°27'0 0.0
2014-Apr-18 03:33N 27°56' W 082°27'0 0.0
2014-Apr-18 02:33N 27°56' W 082°27'0 0.0
2014-Apr-18 01:33N 27°56' W 082°27'0 0.0
2014-Apr-18 00:33N 27°56' W 082°27'0 0.5
2014-Apr-17 23:33N 27°57' W 082°27'1 1.1
2014-Apr-17 22:33N 27°56' W 082°27'7 7.4
2014-Apr-17 21:33N 27°48' W 082°27'7 7.3
2014-Apr-17 20:33N 27°43' W 082°33'441 9.0
2014-Apr-15 19:21N 30°03' W 090°30'4 5.6
2014-Apr-15 18:33N 30°03' W 090°35'0 0.0
2014-Apr-15 17:33N 30°03' W 090°35'0 0.0
2014-Apr-15 10:32N 30°03' W 090°35'0 0.0
2014-Apr-15 09:32N 30°03' W 090°35'0 0.0
2014-Apr-15 07:32N 30°03' W 090°35'0 0.0
2014-Apr-15 02:31N 30°03' W 090°35'0 0.0
2014-Apr-15 00:31N 30°03' W 090°35'0 0.0
2014-Apr-14 22:31N 30°03' W 090°35'0 0.0
2014-Apr-14 21:31N 30°03' W 090°35'0 0.0
2014-Apr-14 11:31N 30°03' W 090°35'0 0.0
2014-Apr-14 10:31N 30°03' W 090°35'0 0.0
2014-Apr-14 09:31N 30°03' W 090°35'0 0.0
2014-Apr-14 08:31N 30°03' W 090°35'0 0.0
2014-Apr-14 07:31N 30°03' W 090°35'0 0.0
2014-Apr-14 06:31N 30°03' W 090°35'0 0.0
2014-Apr-14 05:31N 30°03' W 090°35'  
2014-Apr-11 07:33N 29°50' W 089°60'  

Dump ship's entire track history

sailing weather and tide predictions

Osg Courageous — WDF7122 — position and weather